sensor_id;sensor_type;location;lat;lon;timestamp;temperature;humidity
15615;DHT22;7907;51.368;6.730;2022-10-22T00:00:17;15.10;99.90
15615;DHT22;7907;51.368;6.730;2022-10-22T00:02:44;15.10;99.90
15615;DHT22;7907;51.368;6.730;2022-10-22T00:05:11;15.10;99.90
15615;DHT22;7907;51.368;6.730;2022-10-22T00:07:38;15.10;99.90
15615;DHT22;7907;51.368;6.730;2022-10-22T00:10:06;15.10;99.90
15615;DHT22;7907;51.368;6.730;2022-10-22T00:12:34;15.10;99.90
15615;DHT22;7907;51.368;6.730;2022-10-22T00:15:01;15.10;99.90
15615;DHT22;7907;51.368;6.730;2022-10-22T00:17:29;15.10;99.90
15615;DHT22;7907;51.368;6.730;2022-10-22T00:19:56;15.20;99.90
15615;DHT22;7907;51.368;6.730;2022-10-22T00:22:32;15.20;99.90
15615;DHT22;7907;51.368;6.730;2022-10-22T00:24:59;15.20;99.90
15615;DHT22;7907;51.368;6.730;2022-10-22T00:27:26;15.20;99.90
15615;DHT22;7907;51.368;6.730;2022-10-22T00:29:53;15.20;99.90
15615;DHT22;7907;51.368;6.730;2022-10-22T00:32:20;15.20;99.90
15615;DHT22;7907;51.368;6.730;2022-10-22T00:34:49;15.20;99.90
15615;DHT22;7907;51.368;6.730;2022-10-22T00:37:16;15.20;99.90
15615;DHT22;7907;51.368;6.730;2022-10-22T00:39:43;15.20;99.90
15615;DHT22;7907;51.368;6.730;2022-10-22T00:42:12;15.20;99.90
15615;DHT22;7907;51.368;6.730;2022-10-22T00:45:04;15.20;99.90
15615;DHT22;7907;51.368;6.730;2022-10-22T00:47:34;15.20;99.90
15615;DHT22;7907;51.368;6.730;2022-10-22T00:50:06;15.20;99.90
15615;DHT22;7907;51.368;6.730;2022-10-22T00:52:33;15.20;99.90
15615;DHT22;7907;51.368;6.730;2022-10-22T00:55:01;15.20;99.90
15615;DHT22;7907;51.368;6.730;2022-10-22T00:57:28;15.20;99.90
15615;DHT22;7907;51.368;6.730;2022-10-22T00:59:56;15.10;99.90
15615;DHT22;7907;51.368;6.730;2022-10-22T01:02:24;15.10;99.90
15615;DHT22;7907;51.368;6.730;2022-10-22T01:04:51;15.20;99.90
15615;DHT22;7907;51.368;6.730;2022-10-22T01:07:21;15.20;99.90
15615;DHT22;7907;51.368;6.730;2022-10-22T01:10:00;15.10;99.90
15615;DHT22;7907;51.368;6.730;2022-10-22T01:12:36;15.10;99.90
15615;DHT22;7907;51.368;6.730;2022-10-22T01:15:13;15.20;99.90
15615;DHT22;7907;51.368;6.730;2022-10-22T01:17:48;15.20;99.90
15615;DHT22;7907;51.368;6.730;2022-10-22T01:20:37;15.20;99.90
15615;DHT22;7907;51.368;6.730;2022-10-22T01:23:20;15.20;99.90
15615;DHT22;7907;51.368;6.730;2022-10-22T01:25:54;15.20;99.90
15615;DHT22;7907;51.368;6.730;2022-10-22T01:28:42;15.20;99.90
15615;DHT22;7907;51.368;6.730;2022-10-22T01:31:11;15.20;99.90
15615;DHT22;7907;51.368;6.730;2022-10-22T01:33:40;15.20;99.90
15615;DHT22;7907;51.368;6.730;2022-10-22T01:36:08;15.20;99.90
15615;DHT22;7907;51.368;6.730;2022-10-22T01:38:38;15.20;99.90
15615;DHT22;7907;51.368;6.730;2022-10-22T01:41:06;15.20;99.90
15615;DHT22;7907;51.368;6.730;2022-10-22T01:43:33;15.20;99.90
15615;DHT22;7907;51.368;6.730;2022-10-22T01:46:03;15.20;99.90
15615;DHT22;7907;51.368;6.730;2022-10-22T01:48:38;15.20;99.90
15615;DHT22;7907;51.368;6.730;2022-10-22T01:51:24;15.10;99.90
15615;DHT22;7907;51.368;6.730;2022-10-22T01:53:57;15.20;99.90
15615;DHT22;7907;51.368;6.730;2022-10-22T01:56:45;15.20;99.90
15615;DHT22;7907;51.368;6.730;2022-10-22T01:59:23;15.20;99.90
15615;DHT22;7907;51.368;6.730;2022-10-22T02:02:03;15.20;99.90
15615;DHT22;7907;51.368;6.730;2022-10-22T02:04:41;15.20;99.90
15615;DHT22;7907;51.368;6.730;2022-10-22T02:07:13;15.20;99.90
15615;DHT22;7907;51.368;6.730;2022-10-22T02:09:41;15.20;99.90
15615;DHT22;7907;51.368;6.730;2022-10-22T02:12:10;15.20;99.90
15615;DHT22;7907;51.368;6.730;2022-10-22T02:14:42;15.20;99.90
15615;DHT22;7907;51.368;6.730;2022-10-22T02:17:15;15.20;99.90
15615;DHT22;7907;51.368;6.730;2022-10-22T02:19:47;15.20;99.90
15615;DHT22;7907;51.368;6.730;2022-10-22T02:22:18;15.20;99.90
15615;DHT22;7907;51.368;6.730;2022-10-22T02:24:46;15.20;99.90
15615;DHT22;7907;51.368;6.730;2022-10-22T02:27:20;15.20;99.90
15615;DHT22;7907;51.368;6.730;2022-10-22T02:29:56;15.20;99.90
15615;DHT22;7907;51.368;6.730;2022-10-22T02:32:30;15.30;99.90
15615;DHT22;7907;51.368;6.730;2022-10-22T02:34:59;15.30;99.90
15615;DHT22;7907;51.368;6.730;2022-10-22T02:37:27;15.30;99.90
15615;DHT22;7907;51.368;6.730;2022-10-22T02:39:55;15.30;99.90
15615;DHT22;7907;51.368;6.730;2022-10-22T02:42:24;15.40;99.90
15615;DHT22;7907;51.368;6.730;2022-10-22T02:44:52;15.40;99.90
15615;DHT22;7907;51.368;6.730;2022-10-22T02:47:19;15.40;99.90
15615;DHT22;7907;51.368;6.730;2022-10-22T02:49:47;15.40;99.90
15615;DHT22;7907;51.368;6.730;2022-10-22T02:52:14;15.40;99.90
15615;DHT22;7907;51.368;6.730;2022-10-22T02:54:41;15.40;99.90
15615;DHT22;7907;51.368;6.730;2022-10-22T02:57:09;15.40;99.90
15615;DHT22;7907;51.368;6.730;2022-10-22T02:59:36;15.40;99.90
15615;DHT22;7907;51.368;6.730;2022-10-22T03:02:03;15.40;99.90
15615;DHT22;7907;51.368;6.730;2022-10-22T03:04:31;15.40;99.90
15615;DHT22;7907;51.368;6.730;2022-10-22T03:07:00;15.30;99.90
15615;DHT22;7907;51.368;6.730;2022-10-22T03:09:28;15.30;99.90
15615;DHT22;7907;51.368;6.730;2022-10-22T03:11:55;15.40;99.90
15615;DHT22;7907;51.368;6.730;2022-10-22T03:14:22;15.30;99.90
15615;DHT22;7907;51.368;6.730;2022-10-22T03:16:49;15.30;99.90
15615;DHT22;7907;51.368;6.730;2022-10-22T03:19:16;15.30;99.90
15615;DHT22;7907;51.368;6.730;2022-10-22T03:21:46;15.30;99.90
15615;DHT22;7907;51.368;6.730;2022-10-22T03:24:18;15.30;99.90
15615;DHT22;7907;51.368;6.730;2022-10-22T03:26:49;15.30;99.90
15615;DHT22;7907;51.368;6.730;2022-10-22T03:29:18;15.20;99.90
15615;DHT22;7907;51.368;6.730;2022-10-22T03:31:46;15.20;99.90
15615;DHT22;7907;51.368;6.730;2022-10-22T03:34:13;15.20;99.90
15615;DHT22;7907;51.368;6.730;2022-10-22T03:36:41;15.20;99.90
15615;DHT22;7907;51.368;6.730;2022-10-22T03:39:09;15.20;99.90
15615;DHT22;7907;51.368;6.730;2022-10-22T03:41:40;15.20;99.90
15615;DHT22;7907;51.368;6.730;2022-10-22T03:44:09;15.20;99.90
15615;DHT22;7907;51.368;6.730;2022-10-22T03:46:37;15.10;99.90
15615;DHT22;7907;51.368;6.730;2022-10-22T03:49:04;15.10;99.90
15615;DHT22;7907;51.368;6.730;2022-10-22T03:51:31;15.10;99.90
15615;DHT22;7907;51.368;6.730;2022-10-22T03:53:58;15.10;99.90
15615;DHT22;7907;51.368;6.730;2022-10-22T03:56:26;15.10;99.90
15615;DHT22;7907;51.368;6.730;2022-10-22T03:58:57;15.10;99.90
15615;DHT22;7907;51.368;6.730;2022-10-22T04:01:26;15.20;99.90
15615;DHT22;7907;51.368;6.730;2022-10-22T04:03:54;15.10;99.90
15615;DHT22;7907;51.368;6.730;2022-10-22T04:06:22;15.10;99.90
15615;DHT22;7907;51.368;6.730;2022-10-22T04:08:49;15.10;99.90
15615;DHT22;7907;51.368;6.730;2022-10-22T04:11:16;15.10;99.90
15615;DHT22;7907;51.368;6.730;2022-10-22T04:13:44;15.10;99.90
15615;DHT22;7907;51.368;6.730;2022-10-22T04:16:14;15.10;99.90
15615;DHT22;7907;51.368;6.730;2022-10-22T04:18:44;15.10;99.90
15615;DHT22;7907;51.368;6.730;2022-10-22T04:21:13;15.00;99.90
15615;DHT22;7907;51.368;6.730;2022-10-22T04:23:44;15.00;99.90
15615;DHT22;7907;51.368;6.730;2022-10-22T04:26:15;15.00;99.90
15615;DHT22;7907;51.368;6.730;2022-10-22T04:28:42;15.00;99.90
15615;DHT22;7907;51.368;6.730;2022-10-22T04:31:11;14.90;99.90
15615;DHT22;7907;51.368;6.730;2022-10-22T04:33:41;14.90;99.90
15615;DHT22;7907;51.368;6.730;2022-10-22T04:36:10;14.90;99.90
15615;DHT22;7907;51.368;6.730;2022-10-22T04:38:38;14.90;99.90
15615;DHT22;7907;51.368;6.730;2022-10-22T04:41:10;14.90;99.90
15615;DHT22;7907;51.368;6.730;2022-10-22T04:43:37;14.90;99.90
15615;DHT22;7907;51.368;6.730;2022-10-22T04:46:05;14.90;99.90
15615;DHT22;7907;51.368;6.730;2022-10-22T04:48:34;14.80;99.90
15615;DHT22;7907;51.368;6.730;2022-10-22T04:51:03;14.80;99.90
15615;DHT22;7907;51.368;6.730;2022-10-22T04:53:31;14.80;99.90
15615;DHT22;7907;51.368;6.730;2022-10-22T04:56:07;14.80;99.90
15615;DHT22;7907;51.368;6.730;2022-10-22T04:58:35;14.70;99.90
15615;DHT22;7907;51.368;6.730;2022-10-22T05:01:09;14.70;99.90
15615;DHT22;7907;51.368;6.730;2022-10-22T05:03:36;14.70;99.90
15615;DHT22;7907;51.368;6.730;2022-10-22T05:06:06;14.70;99.90
15615;DHT22;7907;51.368;6.730;2022-10-22T05:08:33;14.70;99.90
15615;DHT22;7907;51.368;6.730;2022-10-22T05:11:01;14.60;99.90
15615;DHT22;7907;51.368;6.730;2022-10-22T05:13:35;14.60;99.90
15615;DHT22;7907;51.368;6.730;2022-10-22T05:16:03;14.60;99.90
15615;DHT22;7907;51.368;6.730;2022-10-22T05:18:33;14.60;99.90
15615;DHT22;7907;51.368;6.730;2022-10-22T05:21:01;14.60;99.90
15615;DHT22;7907;51.368;6.730;2022-10-22T05:23:30;14.50;99.90
15615;DHT22;7907;51.368;6.730;2022-10-22T05:26:00;14.50;99.90
15615;DHT22;7907;51.368;6.730;2022-10-22T05:28:28;14.50;99.90
15615;DHT22;7907;51.368;6.730;2022-10-22T05:30:57;14.60;99.90
15615;DHT22;7907;51.368;6.730;2022-10-22T05:33:25;14.50;99.90
15615;DHT22;7907;51.368;6.730;2022-10-22T05:35:52;14.50;99.90
15615;DHT22;7907;51.368;6.730;2022-10-22T05:38:20;14.50;99.90
15615;DHT22;7907;51.368;6.730;2022-10-22T05:40:58;14.50;99.90
15615;DHT22;7907;51.368;6.730;2022-10-22T05:43:26;14.50;99.90
15615;DHT22;7907;51.368;6.730;2022-10-22T05:45:53;14.50;99.90
15615;DHT22;7907;51.368;6.730;2022-10-22T05:48:21;14.50;99.90
15615;DHT22;7907;51.368;6.730;2022-10-22T05:50:48;14.50;99.90
15615;DHT22;7907;51.368;6.730;2022-10-22T05:53:17;14.50;99.90
15615;DHT22;7907;51.368;6.730;2022-10-22T05:55:44;14.50;99.90
15615;DHT22;7907;51.368;6.730;2022-10-22T05:58:13;14.50;99.90
15615;DHT22;7907;51.368;6.730;2022-10-22T06:00:40;14.50;99.90
15615;DHT22;7907;51.368;6.730;2022-10-22T06:03:08;14.50;99.90
15615;DHT22;7907;51.368;6.730;2022-10-22T06:05:36;14.50;99.90
15615;DHT22;7907;51.368;6.730;2022-10-22T06:08:04;14.50;99.90
15615;DHT22;7907;51.368;6.730;2022-10-22T06:10:32;14.50;99.90
15615;DHT22;7907;51.368;6.730;2022-10-22T06:13:01;14.50;99.90
15615;DHT22;7907;51.368;6.730;2022-10-22T06:15:34;14.60;99.90
15615;DHT22;7907;51.368;6.730;2022-10-22T06:18:02;14.60;99.90
15615;DHT22;7907;51.368;6.730;2022-10-22T06:20:29;14.60;99.90
15615;DHT22;7907;51.368;6.730;2022-10-22T06:22:58;14.60;99.90
15615;DHT22;7907;51.368;6.730;2022-10-22T06:25:25;14.60;99.90
15615;DHT22;7907;51.368;6.730;2022-10-22T06:27:52;14.50;99.90
15615;DHT22;7907;51.368;6.730;2022-10-22T06:30:19;14.60;99.90
15615;DHT22;7907;51.368;6.730;2022-10-22T06:32:48;14.60;99.90
15615;DHT22;7907;51.368;6.730;2022-10-22T06:35:16;14.60;99.90
15615;DHT22;7907;51.368;6.730;2022-10-22T06:37:44;14.60;99.90
15615;DHT22;7907;51.368;6.730;2022-10-22T06:40:13;14.60;99.90
15615;DHT22;7907;51.368;6.730;2022-10-22T06:42:41;14.70;99.90
15615;DHT22;7907;51.368;6.730;2022-10-22T06:45:09;14.70;99.90
15615;DHT22;7907;51.368;6.730;2022-10-22T06:47:36;14.70;99.90
15615;DHT22;7907;51.368;6.730;2022-10-22T06:50:07;14.80;99.90
15615;DHT22;7907;51.368;6.730;2022-10-22T06:52:34;14.80;99.90
15615;DHT22;7907;51.368;6.730;2022-10-22T06:55:02;14.90;99.90
15615;DHT22;7907;51.368;6.730;2022-10-22T06:57:30;15.00;99.90
15615;DHT22;7907;51.368;6.730;2022-10-22T06:59:57;15.00;99.90
15615;DHT22;7907;51.368;6.730;2022-10-22T07:02:24;15.10;99.90
15615;DHT22;7907;51.368;6.730;2022-10-22T07:04:51;15.10;99.90
15615;DHT22;7907;51.368;6.730;2022-10-22T07:07:21;15.20;99.90
15615;DHT22;7907;51.368;6.730;2022-10-22T07:09:48;15.30;99.90
15615;DHT22;7907;51.368;6.730;2022-10-22T07:12:15;15.30;99.90
15615;DHT22;7907;51.368;6.730;2022-10-22T07:14:42;15.40;99.90
15615;DHT22;7907;51.368;6.730;2022-10-22T07:17:10;15.40;99.90
15615;DHT22;7907;51.368;6.730;2022-10-22T07:19:37;15.50;99.90
15615;DHT22;7907;51.368;6.730;2022-10-22T07:22:05;15.60;99.90
15615;DHT22;7907;51.368;6.730;2022-10-22T07:24:33;15.60;99.90
15615;DHT22;7907;51.368;6.730;2022-10-22T07:27:01;15.60;99.90
15615;DHT22;7907;51.368;6.730;2022-10-22T07:29:29;15.70;99.90
15615;DHT22;7907;51.368;6.730;2022-10-22T07:31:56;15.70;99.90
15615;DHT22;7907;51.368;6.730;2022-10-22T07:34:23;15.80;99.90
15615;DHT22;7907;51.368;6.730;2022-10-22T07:36:50;15.80;99.90
15615;DHT22;7907;51.368;6.730;2022-10-22T07:39:18;15.80;99.90
15615;DHT22;7907;51.368;6.730;2022-10-22T07:41:47;15.90;99.90
15615;DHT22;7907;51.368;6.730;2022-10-22T07:44:14;15.90;99.90
15615;DHT22;7907;51.368;6.730;2022-10-22T07:46:42;16.00;99.90
15615;DHT22;7907;51.368;6.730;2022-10-22T07:49:09;16.00;99.90
15615;DHT22;7907;51.368;6.730;2022-10-22T07:51:36;16.10;99.90
15615;DHT22;7907;51.368;6.730;2022-10-22T07:54:03;16.10;99.90
15615;DHT22;7907;51.368;6.730;2022-10-22T07:56:31;16.10;99.90
15615;DHT22;7907;51.368;6.730;2022-10-22T07:58:59;16.20;99.90
15615;DHT22;7907;51.368;6.730;2022-10-22T08:01:27;16.20;99.90
15615;DHT22;7907;51.368;6.730;2022-10-22T08:03:54;16.20;99.90
15615;DHT22;7907;51.368;6.730;2022-10-22T08:06:21;16.30;99.90
15615;DHT22;7907;51.368;6.730;2022-10-22T08:08:48;16.30;99.90
15615;DHT22;7907;51.368;6.730;2022-10-22T08:11:15;16.40;99.90
15615;DHT22;7907;51.368;6.730;2022-10-22T08:13:43;16.40;99.90
15615;DHT22;7907;51.368;6.730;2022-10-22T08:16:12;16.50;99.90
15615;DHT22;7907;51.368;6.730;2022-10-22T08:18:39;16.50;99.90
15615;DHT22;7907;51.368;6.730;2022-10-22T08:21:07;16.50;99.90
15615;DHT22;7907;51.368;6.730;2022-10-22T08:23:35;16.50;99.90
15615;DHT22;7907;51.368;6.730;2022-10-22T08:26:03;16.60;99.90
15615;DHT22;7907;51.368;6.730;2022-10-22T08:28:31;16.60;99.90
15615;DHT22;7907;51.368;6.730;2022-10-22T08:31:01;16.60;99.90
15615;DHT22;7907;51.368;6.730;2022-10-22T08:33:30;16.60;99.90
15615;DHT22;7907;51.368;6.730;2022-10-22T08:35:58;16.60;99.90
15615;DHT22;7907;51.368;6.730;2022-10-22T08:38:26;16.70;99.90
15615;DHT22;7907;51.368;6.730;2022-10-22T08:41:07;16.70;99.90
15615;DHT22;7907;51.368;6.730;2022-10-22T08:44:00;16.70;99.90
15615;DHT22;7907;51.368;6.730;2022-10-22T08:46:47;16.80;99.90
15615;DHT22;7907;51.368;6.730;2022-10-22T08:49:23;16.80;99.90
15615;DHT22;7907;51.368;6.730;2022-10-22T08:51:54;16.90;99.90
15615;DHT22;7907;51.368;6.730;2022-10-22T08:54:31;16.90;99.90
15615;DHT22;7907;51.368;6.730;2022-10-22T08:57:18;17.00;99.90
15615;DHT22;7907;51.368;6.730;2022-10-22T08:59:53;17.00;99.90
15615;DHT22;7907;51.368;6.730;2022-10-22T09:02:30;17.10;99.90
15615;DHT22;7907;51.368;6.730;2022-10-22T09:05:12;17.10;99.90
15615;DHT22;7907;51.368;6.730;2022-10-22T09:07:42;17.20;99.90
15615;DHT22;7907;51.368;6.730;2022-10-22T09:10:15;17.20;99.90
15615;DHT22;7907;51.368;6.730;2022-10-22T09:12:42;17.30;99.90
15615;DHT22;7907;51.368;6.730;2022-10-22T09:15:13;17.30;99.90
15615;DHT22;7907;51.368;6.730;2022-10-22T09:17:49;17.40;99.90
15615;DHT22;7907;51.368;6.730;2022-10-22T09:20:26;17.50;99.90
15615;DHT22;7907;51.368;6.730;2022-10-22T09:23:16;17.50;99.90
15615;DHT22;7907;51.368;6.730;2022-10-22T09:25:46;17.50;99.90
15615;DHT22;7907;51.368;6.730;2022-10-22T09:28:16;17.50;99.90
15615;DHT22;7907;51.368;6.730;2022-10-22T09:30:43;17.50;99.90
15615;DHT22;7907;51.368;6.730;2022-10-22T09:33:15;17.60;99.90
15615;DHT22;7907;51.368;6.730;2022-10-22T09:35:51;17.60;99.90
15615;DHT22;7907;51.368;6.730;2022-10-22T09:38:20;17.60;99.90
15615;DHT22;7907;51.368;6.730;2022-10-22T09:40:51;17.60;99.90
15615;DHT22;7907;51.368;6.730;2022-10-22T09:43:19;17.60;99.90
15615;DHT22;7907;51.368;6.730;2022-10-22T09:45:47;17.70;99.90
15615;DHT22;7907;51.368;6.730;2022-10-22T09:48:26;17.70;99.90
15615;DHT22;7907;51.368;6.730;2022-10-22T09:51:02;17.90;99.90
15615;DHT22;7907;51.368;6.730;2022-10-22T09:53:34;17.90;99.90
15615;DHT22;7907;51.368;6.730;2022-10-22T09:56:08;18.00;99.90
15615;DHT22;7907;51.368;6.730;2022-10-22T09:58:41;18.10;99.90
15615;DHT22;7907;51.368;6.730;2022-10-22T10:01:18;18.10;99.90
15615;DHT22;7907;51.368;6.730;2022-10-22T10:03:47;18.20;99.90
15615;DHT22;7907;51.368;6.730;2022-10-22T10:06:20;18.20;99.90
15615;DHT22;7907;51.368;6.730;2022-10-22T10:08:48;18.20;99.90
15615;DHT22;7907;51.368;6.730;2022-10-22T10:11:22;18.20;99.90
15615;DHT22;7907;51.368;6.730;2022-10-22T10:14:01;18.30;99.90
15615;DHT22;7907;51.368;6.730;2022-10-22T10:16:42;18.30;99.90
15615;DHT22;7907;51.368;6.730;2022-10-22T10:19:27;18.30;99.90
15615;DHT22;7907;51.368;6.730;2022-10-22T10:22:04;18.30;99.90
15615;DHT22;7907;51.368;6.730;2022-10-22T10:24:46;18.30;99.90
15615;DHT22;7907;51.368;6.730;2022-10-22T10:27:23;18.40;99.90
15615;DHT22;7907;51.368;6.730;2022-10-22T10:29:56;18.40;99.90
15615;DHT22;7907;51.368;6.730;2022-10-22T10:32:42;18.50;99.90
15615;DHT22;7907;51.368;6.730;2022-10-22T10:35:21;18.50;99.90
15615;DHT22;7907;51.368;6.730;2022-10-22T10:37:59;18.60;99.90
15615;DHT22;7907;51.368;6.730;2022-10-22T10:40:41;18.70;99.90
15615;DHT22;7907;51.368;6.730;2022-10-22T10:43:15;18.70;99.90
15615;DHT22;7907;51.368;6.730;2022-10-22T10:45:53;18.70;99.90
15615;DHT22;7907;51.368;6.730;2022-10-22T10:48:40;18.70;99.90
15615;DHT22;7907;51.368;6.730;2022-10-22T10:51:27;18.70;99.90
15615;DHT22;7907;51.368;6.730;2022-10-22T10:54:15;18.80;99.90
15615;DHT22;7907;51.368;6.730;2022-10-22T10:56:47;18.80;99.90
15615;DHT22;7907;51.368;6.730;2022-10-22T10:59:22;18.80;99.90
15615;DHT22;7907;51.368;6.730;2022-10-22T11:02:07;18.90;99.90
15615;DHT22;7907;51.368;6.730;2022-10-22T11:05:01;18.90;99.90
15615;DHT22;7907;51.368;6.730;2022-10-22T11:07:36;18.90;99.90
15615;DHT22;7907;51.368;6.730;2022-10-22T11:10:12;18.90;99.90
15615;DHT22;7907;51.368;6.730;2022-10-22T11:12:45;18.80;99.90
15615;DHT22;7907;51.368;6.730;2022-10-22T11:15:24;18.80;99.90
15615;DHT22;7907;51.368;6.730;2022-10-22T11:17:54;18.80;99.90
15615;DHT22;7907;51.368;6.730;2022-10-22T11:20:27;18.80;99.90
15615;DHT22;7907;51.368;6.730;2022-10-22T11:23:03;18.80;99.90
15615;DHT22;7907;51.368;6.730;2022-10-22T11:25:37;18.80;99.90
15615;DHT22;7907;51.368;6.730;2022-10-22T11:28:11;18.80;99.90
15615;DHT22;7907;51.368;6.730;2022-10-22T11:30:43;18.80;99.90
15615;DHT22;7907;51.368;6.730;2022-10-22T11:33:15;18.80;99.90
15615;DHT22;7907;51.368;6.730;2022-10-22T11:35:45;18.70;99.90
15615;DHT22;7907;51.368;6.730;2022-10-22T11:38:15;18.70;99.90
15615;DHT22;7907;51.368;6.730;2022-10-22T11:40:51;18.70;99.90
15615;DHT22;7907;51.368;6.730;2022-10-22T11:43:29;18.70;99.90
15615;DHT22;7907;51.368;6.730;2022-10-22T11:46:02;18.70;99.90
15615;DHT22;7907;51.368;6.730;2022-10-22T11:48:36;18.70;99.90
15615;DHT22;7907;51.368;6.730;2022-10-22T11:51:28;18.70;99.90
15615;DHT22;7907;51.368;6.730;2022-10-22T11:53:56;18.70;99.90
15615;DHT22;7907;51.368;6.730;2022-10-22T11:56:26;18.70;99.90
15615;DHT22;7907;51.368;6.730;2022-10-22T11:58:54;18.70;99.90
15615;DHT22;7907;51.368;6.730;2022-10-22T12:01:24;18.70;99.90
15615;DHT22;7907;51.368;6.730;2022-10-22T12:06:58;18.70;99.90
15615;DHT22;7907;51.368;6.730;2022-10-22T12:09:27;18.70;99.90
15615;DHT22;7907;51.368;6.730;2022-10-22T12:12:10;18.70;99.90
15615;DHT22;7907;51.368;6.730;2022-10-22T12:14:51;18.70;99.90
15615;DHT22;7907;51.368;6.730;2022-10-22T12:17:21;18.70;99.90
15615;DHT22;7907;51.368;6.730;2022-10-22T12:19:50;18.70;99.90
15615;DHT22;7907;51.368;6.730;2022-10-22T12:22:22;18.70;99.90
15615;DHT22;7907;51.368;6.730;2022-10-22T12:24:52;18.70;99.90
15615;DHT22;7907;51.368;6.730;2022-10-22T12:27:25;18.70;99.90
15615;DHT22;7907;51.368;6.730;2022-10-22T12:29:54;18.70;99.90
15615;DHT22;7907;51.368;6.730;2022-10-22T12:32:23;18.70;99.90
15615;DHT22;7907;51.368;6.730;2022-10-22T12:34:55;18.80;99.90
15615;DHT22;7907;51.368;6.730;2022-10-22T12:37:22;18.90;99.90
15615;DHT22;7907;51.368;6.730;2022-10-22T12:39:50;19.00;99.90
15615;DHT22;7907;51.368;6.730;2022-10-22T12:42:18;19.00;99.90
15615;DHT22;7907;51.368;6.730;2022-10-22T12:44:58;19.10;99.90
15615;DHT22;7907;51.368;6.730;2022-10-22T12:47:25;19.20;99.90
15615;DHT22;7907;51.368;6.730;2022-10-22T12:49:55;19.30;99.90
15615;DHT22;7907;51.368;6.730;2022-10-22T12:52:30;19.30;99.90
15615;DHT22;7907;51.368;6.730;2022-10-22T12:54:57;19.40;99.90
15615;DHT22;7907;51.368;6.730;2022-10-22T12:57:24;19.50;99.90
15615;DHT22;7907;51.368;6.730;2022-10-22T12:59:51;19.60;99.90
15615;DHT22;7907;51.368;6.730;2022-10-22T13:02:22;19.60;99.90
15615;DHT22;7907;51.368;6.730;2022-10-22T13:05:14;19.60;99.90
15615;DHT22;7907;51.368;6.730;2022-10-22T13:07:45;19.70;99.90
15615;DHT22;7907;51.368;6.730;2022-10-22T13:10:23;19.70;99.90
15615;DHT22;7907;51.368;6.730;2022-10-22T13:12:54;19.60;99.90
15615;DHT22;7907;51.368;6.730;2022-10-22T13:15:36;19.60;99.90
15615;DHT22;7907;51.368;6.730;2022-10-22T13:18:15;19.60;99.90
15615;DHT22;7907;51.368;6.730;2022-10-22T13:20:50;19.50;99.90
15615;DHT22;7907;51.368;6.730;2022-10-22T13:23:20;19.60;99.90
15615;DHT22;7907;51.368;6.730;2022-10-22T13:25:57;19.60;99.90
15615;DHT22;7907;51.368;6.730;2022-10-22T13:28:25;19.50;99.90
15615;DHT22;7907;51.368;6.730;2022-10-22T13:30:55;19.60;99.90
15615;DHT22;7907;51.368;6.730;2022-10-22T13:33:30;19.50;99.90
15615;DHT22;7907;51.368;6.730;2022-10-22T13:35:59;19.50;99.90
15615;DHT22;7907;51.368;6.730;2022-10-22T13:38:27;19.50;99.90
15615;DHT22;7907;51.368;6.730;2022-10-22T13:40:56;19.50;99.90
15615;DHT22;7907;51.368;6.730;2022-10-22T13:43:23;19.40;99.90
15615;DHT22;7907;51.368;6.730;2022-10-22T13:45:53;19.30;99.90
15615;DHT22;7907;51.368;6.730;2022-10-22T13:48:25;19.30;99.90
15615;DHT22;7907;51.368;6.730;2022-10-22T13:50:55;19.20;99.90
15615;DHT22;7907;51.368;6.730;2022-10-22T13:53:24;19.20;99.90
15615;DHT22;7907;51.368;6.730;2022-10-22T13:55:55;19.20;99.90
15615;DHT22;7907;51.368;6.730;2022-10-22T13:58:23;19.20;99.90
15615;DHT22;7907;51.368;6.730;2022-10-22T14:00:52;19.10;99.90
15615;DHT22;7907;51.368;6.730;2022-10-22T14:03:27;19.10;99.90
15615;DHT22;7907;51.368;6.730;2022-10-22T14:05:56;19.10;99.90
15615;DHT22;7907;51.368;6.730;2022-10-22T14:08:24;19.10;99.90
15615;DHT22;7907;51.368;6.730;2022-10-22T14:10:53;19.00;99.90
15615;DHT22;7907;51.368;6.730;2022-10-22T14:13:21;19.00;99.90
15615;DHT22;7907;51.368;6.730;2022-10-22T14:15:50;18.90;99.90
15615;DHT22;7907;51.368;6.730;2022-10-22T14:18:21;18.90;99.90
15615;DHT22;7907;51.368;6.730;2022-10-22T14:20:56;18.90;99.90
15615;DHT22;7907;51.368;6.730;2022-10-22T14:23:26;18.90;99.90
15615;DHT22;7907;51.368;6.730;2022-10-22T14:25:54;18.90;99.90
15615;DHT22;7907;51.368;6.730;2022-10-22T14:28:22;18.90;99.90
15615;DHT22;7907;51.368;6.730;2022-10-22T14:30:53;18.90;99.90
15615;DHT22;7907;51.368;6.730;2022-10-22T14:33:24;19.00;99.90
15615;DHT22;7907;51.368;6.730;2022-10-22T14:35:55;19.10;99.90
15615;DHT22;7907;51.368;6.730;2022-10-22T14:38:24;19.10;99.90
15615;DHT22;7907;51.368;6.730;2022-10-22T14:40:52;19.10;99.90
15615;DHT22;7907;51.368;6.730;2022-10-22T14:43:22;19.10;99.90
15615;DHT22;7907;51.368;6.730;2022-10-22T14:45:50;19.20;99.90
15615;DHT22;7907;51.368;6.730;2022-10-22T14:48:18;19.20;99.90
15615;DHT22;7907;51.368;6.730;2022-10-22T14:50:46;19.20;99.90
15615;DHT22;7907;51.368;6.730;2022-10-22T14:53:18;19.20;99.90
15615;DHT22;7907;51.368;6.730;2022-10-22T14:55:46;19.30;99.90
15615;DHT22;7907;51.368;6.730;2022-10-22T14:58:16;19.50;99.90
15615;DHT22;7907;51.368;6.730;2022-10-22T15:00:44;19.70;99.90
15615;DHT22;7907;51.368;6.730;2022-10-22T15:03:13;20.10;99.90
15615;DHT22;7907;51.368;6.730;2022-10-22T15:05:40;20.70;99.90
15615;DHT22;7907;51.368;6.730;2022-10-22T15:08:08;21.30;99.90
15615;DHT22;7907;51.368;6.730;2022-10-22T15:10:37;21.80;99.90
15615;DHT22;7907;51.368;6.730;2022-10-22T15:13:05;22.40;99.90
15615;DHT22;7907;51.368;6.730;2022-10-22T15:15:32;22.90;99.90
15615;DHT22;7907;51.368;6.730;2022-10-22T15:18:00;23.20;99.90
15615;DHT22;7907;51.368;6.730;2022-10-22T15:20:27;23.20;99.90
15615;DHT22;7907;51.368;6.730;2022-10-22T15:22:55;23.00;99.90
15615;DHT22;7907;51.368;6.730;2022-10-22T15:25:23;22.70;99.90
15615;DHT22;7907;51.368;6.730;2022-10-22T15:27:52;22.40;99.90
15615;DHT22;7907;51.368;6.730;2022-10-22T15:30:19;22.20;99.90
15615;DHT22;7907;51.368;6.730;2022-10-22T15:32:46;22.00;99.90
15615;DHT22;7907;51.368;6.730;2022-10-22T15:35:14;21.70;99.90
15615;DHT22;7907;51.368;6.730;2022-10-22T15:37:41;21.50;99.90
15615;DHT22;7907;51.368;6.730;2022-10-22T15:40:09;21.30;99.90
15615;DHT22;7907;51.368;6.730;2022-10-22T15:42:37;21.10;99.90
15615;DHT22;7907;51.368;6.730;2022-10-22T15:45:08;20.90;99.90
15615;DHT22;7907;51.368;6.730;2022-10-22T15:47:36;20.80;99.90
15615;DHT22;7907;51.368;6.730;2022-10-22T15:50:03;20.60;99.90
15615;DHT22;7907;51.368;6.730;2022-10-22T15:52:31;20.40;99.90
15615;DHT22;7907;51.368;6.730;2022-10-22T15:54:58;20.30;99.90
15615;DHT22;7907;51.368;6.730;2022-10-22T15:57:28;20.10;99.90
15615;DHT22;7907;51.368;6.730;2022-10-22T15:59:58;20.00;99.90
15615;DHT22;7907;51.368;6.730;2022-10-22T16:02:29;19.90;99.90
15615;DHT22;7907;51.368;6.730;2022-10-22T16:04:57;19.70;99.90
15615;DHT22;7907;51.368;6.730;2022-10-22T16:07:25;19.50;99.90
15615;DHT22;7907;51.368;6.730;2022-10-22T16:09:54;19.40;99.90